Forest Acres, South Carolina
Current Conditions -  °F | °C
As of 11:53 AM on Wednesday 26 Nov 2014 (Local Time) from KCUB Reporting Station
Broken Clouds Broken Clouds  
Wind Chill: 53°   Ceiling: 1600
Heat Index: 53°   Visibility: 10mi
Dew Point: 45°   Wind: 8mph
Humidity: 74%   Direction: 320°NW
Pressure: 30.03"   Gusts: NA
Location:  34.025°N, 80.9562°W
Report Text: KCUB 261653Z AUTO 32007KT 10SM BKN016 12/07 A3003 RMK AO2 SLP168 T01170072
Loading
Personal Weather Stations






























Interactive Weather Map New forecast layout! Learn more

10-Day Weather Forecast

Advertisements
Track Severe Weather on mobile